sensor_id;sensor_type;location;lat;lon;timestamp;temperature;humidity
5461;DHT22;2753;49.196;8.286;2022-10-16T00:01:27;16.20;99.90
5461;DHT22;2753;49.196;8.286;2022-10-16T00:03:53;16.20;99.90
5461;DHT22;2753;49.196;8.286;2022-10-16T00:06:20;16.20;99.90
5461;DHT22;2753;49.196;8.286;2022-10-16T00:08:47;16.30;99.90
5461;DHT22;2753;49.196;8.286;2022-10-16T00:11:34;16.30;99.90
5461;DHT22;2753;49.196;8.286;2022-10-16T00:14:03;16.30;99.90
5461;DHT22;2753;49.196;8.286;2022-10-16T00:16:29;16.20;99.90
5461;DHT22;2753;49.196;8.286;2022-10-16T00:18:55;16.20;99.90
5461;DHT22;2753;49.196;8.286;2022-10-16T00:21:25;16.20;99.90
5461;DHT22;2753;49.196;8.286;2022-10-16T00:23:56;16.20;99.90
5461;DHT22;2753;49.196;8.286;2022-10-16T00:26:23;16.20;99.90
5461;DHT22;2753;49.196;8.286;2022-10-16T00:28:50;16.20;99.90
5461;DHT22;2753;49.196;8.286;2022-10-16T00:31:18;16.10;99.90
5461;DHT22;2753;49.196;8.286;2022-10-16T00:33:44;16.10;99.90
5461;DHT22;2753;49.196;8.286;2022-10-16T00:36:13;16.10;99.90
5461;DHT22;2753;49.196;8.286;2022-10-16T00:38:39;16.10;99.90
5461;DHT22;2753;49.196;8.286;2022-10-16T00:41:06;16.10;99.90
5461;DHT22;2753;49.196;8.286;2022-10-16T00:46:48;16.10;99.90
5461;DHT22;2753;49.196;8.286;2022-10-16T00:49:17;16.10;99.90
5461;DHT22;2753;49.196;8.286;2022-10-16T00:51:52;16.10;99.90
5461;DHT22;2753;49.196;8.286;2022-10-16T00:54:27;16.10;99.90
5461;DHT22;2753;49.196;8.286;2022-10-16T00:56:53;16.10;99.90
5461;DHT22;2753;49.196;8.286;2022-10-16T00:59:29;16.10;99.90
5461;DHT22;2753;49.196;8.286;2022-10-16T01:01:56;16.10;99.90
5461;DHT22;2753;49.196;8.286;2022-10-16T01:04:23;16.10;99.90
5461;DHT22;2753;49.196;8.286;2022-10-16T01:09:53;16.10;99.90
5461;DHT22;2753;49.196;8.286;2022-10-16T01:12:37;16.10;99.90
5461;DHT22;2753;49.196;8.286;2022-10-16T01:15:30;16.10;99.90
5461;DHT22;2753;49.196;8.286;2022-10-16T01:18:11;16.10;99.90
5461;DHT22;2753;49.196;8.286;2022-10-16T01:20:57;16.10;99.90
5461;DHT22;2753;49.196;8.286;2022-10-16T01:26:13;16.10;99.90
5461;DHT22;2753;49.196;8.286;2022-10-16T01:28:47;16.00;99.90
5461;DHT22;2753;49.196;8.286;2022-10-16T01:31:19;16.10;99.90
5461;DHT22;2753;49.196;8.286;2022-10-16T01:33:55;16.10;99.90
5461;DHT22;2753;49.196;8.286;2022-10-16T01:36:27;16.10;99.90
5461;DHT22;2753;49.196;8.286;2022-10-16T01:38:56;16.00;99.90
5461;DHT22;2753;49.196;8.286;2022-10-16T01:41:38;16.00;99.90
5461;DHT22;2753;49.196;8.286;2022-10-16T01:44:25;16.00;99.90
5461;DHT22;2753;49.196;8.286;2022-10-16T01:46:53;16.00;99.90
5461;DHT22;2753;49.196;8.286;2022-10-16T01:49:22;16.00;99.90
5461;DHT22;2753;49.196;8.286;2022-10-16T01:51:52;16.00;99.90
5461;DHT22;2753;49.196;8.286;2022-10-16T01:54:20;16.10;99.90
5461;DHT22;2753;49.196;8.286;2022-10-16T01:56:49;16.10;99.90
5461;DHT22;2753;49.196;8.286;2022-10-16T01:59:19;16.00;99.90
5461;DHT22;2753;49.196;8.286;2022-10-16T02:01:49;16.00;99.90
5461;DHT22;2753;49.196;8.286;2022-10-16T02:04:20;16.00;99.90
5461;DHT22;2753;49.196;8.286;2022-10-16T02:06:47;16.00;99.90
5461;DHT22;2753;49.196;8.286;2022-10-16T02:09:13;16.00;99.90
5461;DHT22;2753;49.196;8.286;2022-10-16T02:11:41;16.00;99.90
5461;DHT22;2753;49.196;8.286;2022-10-16T02:14:07;16.00;99.90
5461;DHT22;2753;49.196;8.286;2022-10-16T02:16:44;16.00;99.90
5461;DHT22;2753;49.196;8.286;2022-10-16T02:19:11;16.00;99.90
5461;DHT22;2753;49.196;8.286;2022-10-16T02:21:44;16.00;99.90
5461;DHT22;2753;49.196;8.286;2022-10-16T02:27:10;16.00;99.90
5461;DHT22;2753;49.196;8.286;2022-10-16T02:29:43;16.00;99.90
5461;DHT22;2753;49.196;8.286;2022-10-16T02:32:15;16.00;99.90
5461;DHT22;2753;49.196;8.286;2022-10-16T02:34:41;16.00;99.90
5461;DHT22;2753;49.196;8.286;2022-10-16T02:37:07;16.00;99.90
5461;DHT22;2753;49.196;8.286;2022-10-16T02:39:34;16.00;99.90
5461;DHT22;2753;49.196;8.286;2022-10-16T02:42:00;15.90;99.90
5461;DHT22;2753;49.196;8.286;2022-10-16T02:44:25;15.90;99.90
5461;DHT22;2753;49.196;8.286;2022-10-16T02:46:51;15.90;99.90
5461;DHT22;2753;49.196;8.286;2022-10-16T02:49:17;15.90;99.90
5461;DHT22;2753;49.196;8.286;2022-10-16T02:51:43;15.90;99.90
5461;DHT22;2753;49.196;8.286;2022-10-16T02:54:09;15.90;99.90
5461;DHT22;2753;49.196;8.286;2022-10-16T02:56:34;15.90;99.90
5461;DHT22;2753;49.196;8.286;2022-10-16T02:59:00;15.90;99.90
5461;DHT22;2753;49.196;8.286;2022-10-16T03:01:26;15.90;99.90
5461;DHT22;2753;49.196;8.286;2022-10-16T03:03:51;15.90;99.90
5461;DHT22;2753;49.196;8.286;2022-10-16T03:06:17;15.90;99.90
5461;DHT22;2753;49.196;8.286;2022-10-16T03:08:43;15.90;99.90
5461;DHT22;2753;49.196;8.286;2022-10-16T03:11:09;15.90;99.90
5461;DHT22;2753;49.196;8.286;2022-10-16T03:13:34;15.90;99.90
5461;DHT22;2753;49.196;8.286;2022-10-16T03:16:00;15.90;99.90
5461;DHT22;2753;49.196;8.286;2022-10-16T03:18:26;15.90;99.90
5461;DHT22;2753;49.196;8.286;2022-10-16T03:20:51;15.90;99.90
5461;DHT22;2753;49.196;8.286;2022-10-16T03:23:17;15.80;99.90
5461;DHT22;2753;49.196;8.286;2022-10-16T03:25:43;15.80;99.90
5461;DHT22;2753;49.196;8.286;2022-10-16T03:28:08;15.80;99.90
5461;DHT22;2753;49.196;8.286;2022-10-16T03:30:34;15.90;99.90
5461;DHT22;2753;49.196;8.286;2022-10-16T03:33:00;15.80;99.90
5461;DHT22;2753;49.196;8.286;2022-10-16T03:35:25;15.80;99.90
5461;DHT22;2753;49.196;8.286;2022-10-16T03:37:51;15.80;99.90
5461;DHT22;2753;49.196;8.286;2022-10-16T03:40:17;15.80;99.90
5461;DHT22;2753;49.196;8.286;2022-10-16T03:42:43;15.80;99.90
5461;DHT22;2753;49.196;8.286;2022-10-16T03:45:10;15.80;99.90
5461;DHT22;2753;49.196;8.286;2022-10-16T03:47:36;15.80;99.90
5461;DHT22;2753;49.196;8.286;2022-10-16T03:50:02;15.80;99.90
5461;DHT22;2753;49.196;8.286;2022-10-16T03:52:28;15.90;99.90
5461;DHT22;2753;49.196;8.286;2022-10-16T03:54:54;15.90;99.90
5461;DHT22;2753;49.196;8.286;2022-10-16T03:57:19;15.90;99.90
5461;DHT22;2753;49.196;8.286;2022-10-16T03:59:46;15.90;99.90
5461;DHT22;2753;49.196;8.286;2022-10-16T04:02:12;15.90;99.90
5461;DHT22;2753;49.196;8.286;2022-10-16T04:04:37;15.80;99.90
5461;DHT22;2753;49.196;8.286;2022-10-16T04:07:03;15.90;99.90
5461;DHT22;2753;49.196;8.286;2022-10-16T04:09:29;15.90;99.90
5461;DHT22;2753;49.196;8.286;2022-10-16T04:11:55;15.90;99.90
5461;DHT22;2753;49.196;8.286;2022-10-16T04:14:20;15.90;99.90
5461;DHT22;2753;49.196;8.286;2022-10-16T04:16:46;15.90;99.90
5461;DHT22;2753;49.196;8.286;2022-10-16T04:19:12;15.80;99.90
5461;DHT22;2753;49.196;8.286;2022-10-16T04:21:37;15.80;99.90
5461;DHT22;2753;49.196;8.286;2022-10-16T04:24:03;15.80;99.90
5461;DHT22;2753;49.196;8.286;2022-10-16T04:26:29;15.80;99.90
5461;DHT22;2753;49.196;8.286;2022-10-16T04:28:55;15.80;99.90
5461;DHT22;2753;49.196;8.286;2022-10-16T04:31:21;15.80;99.90
5461;DHT22;2753;49.196;8.286;2022-10-16T04:33:47;15.90;99.90
5461;DHT22;2753;49.196;8.286;2022-10-16T04:36:13;15.90;99.90
5461;DHT22;2753;49.196;8.286;2022-10-16T04:38:39;15.80;99.90
5461;DHT22;2753;49.196;8.286;2022-10-16T04:41:06;15.80;99.90
5461;DHT22;2753;49.196;8.286;2022-10-16T04:43:33;15.80;99.90
5461;DHT22;2753;49.196;8.286;2022-10-16T04:45:58;15.80;99.90
5461;DHT22;2753;49.196;8.286;2022-10-16T04:48:24;15.80;99.90
5461;DHT22;2753;49.196;8.286;2022-10-16T04:50:50;15.80;99.90
5461;DHT22;2753;49.196;8.286;2022-10-16T04:53:16;15.80;99.90
5461;DHT22;2753;49.196;8.286;2022-10-16T04:55:42;15.80;99.90
5461;DHT22;2753;49.196;8.286;2022-10-16T04:58:08;15.80;99.90
5461;DHT22;2753;49.196;8.286;2022-10-16T05:00:34;15.80;99.90
5461;DHT22;2753;49.196;8.286;2022-10-16T05:03:00;15.80;99.90
5461;DHT22;2753;49.196;8.286;2022-10-16T05:05:27;15.70;99.90
5461;DHT22;2753;49.196;8.286;2022-10-16T05:07:53;15.70;99.90
5461;DHT22;2753;49.196;8.286;2022-10-16T05:10:19;15.70;99.90
5461;DHT22;2753;49.196;8.286;2022-10-16T05:12:46;15.70;99.90
5461;DHT22;2753;49.196;8.286;2022-10-16T05:15:12;15.70;99.90
5461;DHT22;2753;49.196;8.286;2022-10-16T05:17:38;15.80;99.90
5461;DHT22;2753;49.196;8.286;2022-10-16T05:20:04;15.80;99.90
5461;DHT22;2753;49.196;8.286;2022-10-16T05:22:29;15.80;99.90
5461;DHT22;2753;49.196;8.286;2022-10-16T05:24:55;15.80;99.90
5461;DHT22;2753;49.196;8.286;2022-10-16T05:27:21;15.80;99.90
5461;DHT22;2753;49.196;8.286;2022-10-16T05:29:47;15.70;99.90
5461;DHT22;2753;49.196;8.286;2022-10-16T05:32:17;15.70;99.90
5461;DHT22;2753;49.196;8.286;2022-10-16T05:34:43;15.80;99.90
5461;DHT22;2753;49.196;8.286;2022-10-16T05:37:09;15.80;99.90
5461;DHT22;2753;49.196;8.286;2022-10-16T05:39:36;15.70;99.90
5461;DHT22;2753;49.196;8.286;2022-10-16T05:42:02;15.80;99.90
5461;DHT22;2753;49.196;8.286;2022-10-16T05:44:28;15.70;99.90
5461;DHT22;2753;49.196;8.286;2022-10-16T05:46:53;15.70;99.90
5461;DHT22;2753;49.196;8.286;2022-10-16T05:49:19;15.80;99.90
5461;DHT22;2753;49.196;8.286;2022-10-16T05:51:45;15.80;99.90
5461;DHT22;2753;49.196;8.286;2022-10-16T05:54:10;15.80;99.90
5461;DHT22;2753;49.196;8.286;2022-10-16T05:56:36;15.80;99.90
5461;DHT22;2753;49.196;8.286;2022-10-16T05:59:03;15.80;99.90
5461;DHT22;2753;49.196;8.286;2022-10-16T06:01:29;15.80;99.90
5461;DHT22;2753;49.196;8.286;2022-10-16T06:03:56;15.70;99.90
5461;DHT22;2753;49.196;8.286;2022-10-16T06:06:24;15.80;99.90
5461;DHT22;2753;49.196;8.286;2022-10-16T06:08:52;15.80;99.90
5461;DHT22;2753;49.196;8.286;2022-10-16T06:11:21;15.80;99.90
5461;DHT22;2753;49.196;8.286;2022-10-16T06:13:51;15.80;99.90
5461;DHT22;2753;49.196;8.286;2022-10-16T06:16:17;15.80;99.90
5461;DHT22;2753;49.196;8.286;2022-10-16T06:18:43;15.80;99.90
5461;DHT22;2753;49.196;8.286;2022-10-16T06:21:11;15.70;99.90
5461;DHT22;2753;49.196;8.286;2022-10-16T06:23:37;15.70;99.90
5461;DHT22;2753;49.196;8.286;2022-10-16T06:26:07;15.80;99.90
5461;DHT22;2753;49.196;8.286;2022-10-16T06:28:34;15.80;99.90
5461;DHT22;2753;49.196;8.286;2022-10-16T06:31:00;15.70;99.90
5461;DHT22;2753;49.196;8.286;2022-10-16T06:33:26;15.70;99.90
5461;DHT22;2753;49.196;8.286;2022-10-16T06:35:52;15.70;99.90
5461;DHT22;2753;49.196;8.286;2022-10-16T06:38:17;15.70;99.90
5461;DHT22;2753;49.196;8.286;2022-10-16T06:40:43;15.70;99.90
5461;DHT22;2753;49.196;8.286;2022-10-16T06:43:09;15.70;99.90
5461;DHT22;2753;49.196;8.286;2022-10-16T06:45:36;15.70;99.90
5461;DHT22;2753;49.196;8.286;2022-10-16T06:48:02;15.70;99.90
5461;DHT22;2753;49.196;8.286;2022-10-16T06:50:28;15.70;99.90
5461;DHT22;2753;49.196;8.286;2022-10-16T06:52:53;15.70;99.90
5461;DHT22;2753;49.196;8.286;2022-10-16T06:55:19;15.70;99.90
5461;DHT22;2753;49.196;8.286;2022-10-16T06:57:47;15.70;99.90
5461;DHT22;2753;49.196;8.286;2022-10-16T07:00:14;15.70;99.90
5461;DHT22;2753;49.196;8.286;2022-10-16T07:02:39;15.70;99.90
5461;DHT22;2753;49.196;8.286;2022-10-16T07:05:05;15.70;99.90
5461;DHT22;2753;49.196;8.286;2022-10-16T07:07:31;15.70;99.90
5461;DHT22;2753;49.196;8.286;2022-10-16T07:09:57;15.70;99.90
5461;DHT22;2753;49.196;8.286;2022-10-16T07:12:22;15.70;99.90
5461;DHT22;2753;49.196;8.286;2022-10-16T07:14:49;15.80;99.90
5461;DHT22;2753;49.196;8.286;2022-10-16T07:17:17;15.70;99.90
5461;DHT22;2753;49.196;8.286;2022-10-16T07:19:43;15.80;99.90
5461;DHT22;2753;49.196;8.286;2022-10-16T07:22:08;15.80;99.90
5461;DHT22;2753;49.196;8.286;2022-10-16T07:24:34;15.80;99.90
5461;DHT22;2753;49.196;8.286;2022-10-16T07:27:00;15.80;99.90
5461;DHT22;2753;49.196;8.286;2022-10-16T07:29:26;15.80;99.90
5461;DHT22;2753;49.196;8.286;2022-10-16T07:31:51;15.80;99.90
5461;DHT22;2753;49.196;8.286;2022-10-16T07:34:18;15.80;99.90
5461;DHT22;2753;49.196;8.286;2022-10-16T07:36:47;15.80;99.90
5461;DHT22;2753;49.196;8.286;2022-10-16T07:39:12;15.80;99.90
5461;DHT22;2753;49.196;8.286;2022-10-16T07:41:38;15.80;99.90
5461;DHT22;2753;49.196;8.286;2022-10-16T07:44:04;15.80;99.90
5461;DHT22;2753;49.196;8.286;2022-10-16T07:46:30;15.90;99.90
5461;DHT22;2753;49.196;8.286;2022-10-16T07:48:56;15.80;99.90
5461;DHT22;2753;49.196;8.286;2022-10-16T07:51:24;15.90;99.90
5461;DHT22;2753;49.196;8.286;2022-10-16T07:53:50;15.90;99.90
5461;DHT22;2753;49.196;8.286;2022-10-16T07:56:17;15.90;99.90
5461;DHT22;2753;49.196;8.286;2022-10-16T07:58:43;15.90;99.90
5461;DHT22;2753;49.196;8.286;2022-10-16T08:01:11;15.90;99.90
5461;DHT22;2753;49.196;8.286;2022-10-16T08:03:38;16.00;99.90
5461;DHT22;2753;49.196;8.286;2022-10-16T08:06:06;16.00;99.90
5461;DHT22;2753;49.196;8.286;2022-10-16T08:08:32;16.10;99.90
5461;DHT22;2753;49.196;8.286;2022-10-16T08:10:58;16.10;99.90
5461;DHT22;2753;49.196;8.286;2022-10-16T08:13:24;16.10;99.90
5461;DHT22;2753;49.196;8.286;2022-10-16T08:15:53;16.10;99.90
5461;DHT22;2753;49.196;8.286;2022-10-16T08:18:19;16.10;99.90
5461;DHT22;2753;49.196;8.286;2022-10-16T08:20:44;16.10;99.90
5461;DHT22;2753;49.196;8.286;2022-10-16T08:23:13;16.10;99.90
5461;DHT22;2753;49.196;8.286;2022-10-16T08:25:40;16.10;99.90
5461;DHT22;2753;49.196;8.286;2022-10-16T08:28:08;16.20;99.90
5461;DHT22;2753;49.196;8.286;2022-10-16T08:30:35;16.20;99.90
5461;DHT22;2753;49.196;8.286;2022-10-16T08:33:04;16.30;99.90
5461;DHT22;2753;49.196;8.286;2022-10-16T08:35:31;16.30;99.90
5461;DHT22;2753;49.196;8.286;2022-10-16T08:37:56;16.40;99.90
5461;DHT22;2753;49.196;8.286;2022-10-16T08:40:26;16.40;99.90
5461;DHT22;2753;49.196;8.286;2022-10-16T08:46:46;16.40;99.90
5461;DHT22;2753;49.196;8.286;2022-10-16T08:48:52;16.40;99.90
5461;DHT22;2753;49.196;8.286;2022-10-16T08:51:22;16.40;99.90
5461;DHT22;2753;49.196;8.286;2022-10-16T08:54:02;16.50;99.90
5461;DHT22;2753;49.196;8.286;2022-10-16T08:56:28;16.50;99.90
5461;DHT22;2753;49.196;8.286;2022-10-16T08:58:54;16.50;99.90
5461;DHT22;2753;49.196;8.286;2022-10-16T09:01:22;16.50;99.90
5461;DHT22;2753;49.196;8.286;2022-10-16T09:07:03;16.50;99.90
5461;DHT22;2753;49.196;8.286;2022-10-16T09:12:07;16.60;99.90
5461;DHT22;2753;49.196;8.286;2022-10-16T09:14:52;16.60;99.90
5461;DHT22;2753;49.196;8.286;2022-10-16T09:23:22;17.00;99.90
5461;DHT22;2753;49.196;8.286;2022-10-16T09:25:50;17.20;99.90
5461;DHT22;2753;49.196;8.286;2022-10-16T09:28:17;17.40;99.90
5461;DHT22;2753;49.196;8.286;2022-10-16T09:30:44;17.80;99.90
5461;DHT22;2753;49.196;8.286;2022-10-16T09:33:12;17.90;99.90
5461;DHT22;2753;49.196;8.286;2022-10-16T09:35:40;18.00;99.90
5461;DHT22;2753;49.196;8.286;2022-10-16T09:38:08;18.00;99.90
5461;DHT22;2753;49.196;8.286;2022-10-16T09:40:38;18.00;99.90
5461;DHT22;2753;49.196;8.286;2022-10-16T09:46:01;18.10;99.90
5461;DHT22;2753;49.196;8.286;2022-10-16T09:48:43;18.10;99.90
5461;DHT22;2753;49.196;8.286;2022-10-16T09:51:21;18.10;99.90
5461;DHT22;2753;49.196;8.286;2022-10-16T09:53:48;18.20;99.90
5461;DHT22;2753;49.196;8.286;2022-10-16T09:56:31;18.30;99.90
5461;DHT22;2753;49.196;8.286;2022-10-16T09:59:00;18.40;99.90
5461;DHT22;2753;49.196;8.286;2022-10-16T10:01:31;18.60;99.90
5461;DHT22;2753;49.196;8.286;2022-10-16T10:03:58;18.70;99.90
5461;DHT22;2753;49.196;8.286;2022-10-16T10:11:58;19.40;99.90
5461;DHT22;2753;49.196;8.286;2022-10-16T10:14:35;19.60;99.90
5461;DHT22;2753;49.196;8.286;2022-10-16T10:17:11;19.80;99.90
5461;DHT22;2753;49.196;8.286;2022-10-16T10:22:42;20.40;99.90
5461;DHT22;2753;49.196;8.286;2022-10-16T10:30:34;21.00;99.90
5461;DHT22;2753;49.196;8.286;2022-10-16T10:38:54;21.70;99.90
5461;DHT22;2753;49.196;8.286;2022-10-16T11:01:02;22.90;99.90
5461;DHT22;2753;49.196;8.286;2022-10-16T11:03:50;23.10;99.90
5461;DHT22;2753;49.196;8.286;2022-10-16T11:06:47;23.00;99.90
5461;DHT22;2753;49.196;8.286;2022-10-16T11:14:42;22.80;99.90
5461;DHT22;2753;49.196;8.286;2022-10-16T11:20:29;22.70;99.90
5461;DHT22;2753;49.196;8.286;2022-10-16T11:26:13;22.40;99.90
5461;DHT22;2753;49.196;8.286;2022-10-16T11:28:53;22.20;99.90
5461;DHT22;2753;49.196;8.286;2022-10-16T11:31:49;22.20;99.90
5461;DHT22;2753;49.196;8.286;2022-10-16T11:34:34;22.30;99.90
5461;DHT22;2753;49.196;8.286;2022-10-16T11:37:38;22.10;99.90
5461;DHT22;2753;49.196;8.286;2022-10-16T11:40:23;22.00;99.90
5461;DHT22;2753;49.196;8.286;2022-10-16T11:43:13;21.90;99.90
5461;DHT22;2753;49.196;8.286;2022-10-16T11:45:49;22.00;99.90
5461;DHT22;2753;49.196;8.286;2022-10-16T11:48:27;21.90;99.90
5461;DHT22;2753;49.196;8.286;2022-10-16T11:50:56;22.00;99.90
5461;DHT22;2753;49.196;8.286;2022-10-16T11:56:12;21.90;99.90
5461;DHT22;2753;49.196;8.286;2022-10-16T12:04:21;21.80;99.90
5461;DHT22;2753;49.196;8.286;2022-10-16T12:06:58;21.70;99.90
5461;DHT22;2753;49.196;8.286;2022-10-16T12:11:52;21.70;99.90
5461;DHT22;2753;49.196;8.286;2022-10-16T12:19:18;22.10;99.90
5461;DHT22;2753;49.196;8.286;2022-10-16T12:21:45;22.10;99.90
5461;DHT22;2753;49.196;8.286;2022-10-16T12:26:58;22.10;99.90
5461;DHT22;2753;49.196;8.286;2022-10-16T12:31:59;22.00;99.90
5461;DHT22;2753;49.196;8.286;2022-10-16T12:34:37;21.90;99.90
5461;DHT22;2753;49.196;8.286;2022-10-16T12:39:37;21.80;99.90
5461;DHT22;2753;49.196;8.286;2022-10-16T12:42:21;21.70;99.90
5461;DHT22;2753;49.196;8.286;2022-10-16T12:44:47;21.70;99.90
5461;DHT22;2753;49.196;8.286;2022-10-16T12:50:29;21.70;99.90
5461;DHT22;2753;49.196;8.286;2022-10-16T12:52:56;21.70;99.90
5461;DHT22;2753;49.196;8.286;2022-10-16T12:55:23;21.60;99.90
5461;DHT22;2753;49.196;8.286;2022-10-16T13:00:45;21.50;99.90
5461;DHT22;2753;49.196;8.286;2022-10-16T13:06:18;21.40;99.90
5461;DHT22;2753;49.196;8.286;2022-10-16T13:28:05;21.10;99.90
5461;DHT22;2753;49.196;8.286;2022-10-16T13:30:44;21.00;99.90
5461;DHT22;2753;49.196;8.286;2022-10-16T13:35:55;21.00;99.90
5461;DHT22;2753;49.196;8.286;2022-10-16T13:38:23;21.00;99.90
5461;DHT22;2753;49.196;8.286;2022-10-16T13:41:04;20.90;99.90
5461;DHT22;2753;49.196;8.286;2022-10-16T13:43:40;20.90;99.90
5461;DHT22;2753;49.196;8.286;2022-10-16T13:46:15;20.90;99.90
5461;DHT22;2753;49.196;8.286;2022-10-16T13:48:41;20.80;99.90
5461;DHT22;2753;49.196;8.286;2022-10-16T13:51:14;20.80;99.90
5461;DHT22;2753;49.196;8.286;2022-10-16T13:53:40;20.80;99.90
5461;DHT22;2753;49.196;8.286;2022-10-16T13:56:27;20.80;99.90
5461;DHT22;2753;49.196;8.286;2022-10-16T13:59:04;20.80;99.90
5461;DHT22;2753;49.196;8.286;2022-10-16T14:01:44;20.80;99.90
5461;DHT22;2753;49.196;8.286;2022-10-16T14:04:11;20.80;99.90
5461;DHT22;2753;49.196;8.286;2022-10-16T14:06:44;20.80;99.90
5461;DHT22;2753;49.196;8.286;2022-10-16T14:09:28;20.80;99.90
5461;DHT22;2753;49.196;8.286;2022-10-16T14:12:03;20.70;99.90
5461;DHT22;2753;49.196;8.286;2022-10-16T14:14:40;20.70;99.90
5461;DHT22;2753;49.196;8.286;2022-10-16T14:17:06;20.70;99.90
5461;DHT22;2753;49.196;8.286;2022-10-16T14:19:38;20.60;99.90
5461;DHT22;2753;49.196;8.286;2022-10-16T14:22:35;20.60;99.90
5461;DHT22;2753;49.196;8.286;2022-10-16T14:28:00;20.80;99.90
5461;DHT22;2753;49.196;8.286;2022-10-16T14:30:28;21.10;99.90
5461;DHT22;2753;49.196;8.286;2022-10-16T14:33:04;21.30;99.90
5461;DHT22;2753;49.196;8.286;2022-10-16T14:35:38;21.60;99.90
5461;DHT22;2753;49.196;8.286;2022-10-16T14:38:06;21.70;99.90
5461;DHT22;2753;49.196;8.286;2022-10-16T14:40:47;21.70;99.90
5461;DHT22;2753;49.196;8.286;2022-10-16T14:43:37;21.70;99.90
5461;DHT22;2753;49.196;8.286;2022-10-16T14:46:09;21.80;99.90
5461;DHT22;2753;49.196;8.286;2022-10-16T14:48:43;21.90;99.90
5461;DHT22;2753;49.196;8.286;2022-10-16T14:51:14;22.00;99.90
5461;DHT22;2753;49.196;8.286;2022-10-16T14:53:40;22.30;99.90
5461;DHT22;2753;49.196;8.286;2022-10-16T14:58:58;22.20;99.90
5461;DHT22;2753;49.196;8.286;2022-10-16T15:01:24;22.10;99.90
5461;DHT22;2753;49.196;8.286;2022-10-16T15:03:50;22.10;99.90
5461;DHT22;2753;49.196;8.286;2022-10-16T15:06:18;22.10;99.90
5461;DHT22;2753;49.196;8.286;2022-10-16T15:08:43;21.90;99.90
5461;DHT22;2753;49.196;8.286;2022-10-16T15:11:14;21.90;99.90
5461;DHT22;2753;49.196;8.286;2022-10-16T15:13:41;21.90;99.90
5461;DHT22;2753;49.196;8.286;2022-10-16T15:16:14;21.90;99.90
5461;DHT22;2753;49.196;8.286;2022-10-16T15:18:41;21.80;99.90
5461;DHT22;2753;49.196;8.286;2022-10-16T15:21:06;21.70;99.90
5461;DHT22;2753;49.196;8.286;2022-10-16T15:23:32;21.60;99.90
5461;DHT22;2753;49.196;8.286;2022-10-16T15:25:58;21.60;99.90
5461;DHT22;2753;49.196;8.286;2022-10-16T15:28:24;21.50;99.90
5461;DHT22;2753;49.196;8.286;2022-10-16T15:30:53;21.40;99.90
5461;DHT22;2753;49.196;8.286;2022-10-16T15:33:21;21.30;99.90
5461;DHT22;2753;49.196;8.286;2022-10-16T15:35:50;21.20;99.90
5461;DHT22;2753;49.196;8.286;2022-10-16T15:38:17;21.10;99.90
5461;DHT22;2753;49.196;8.286;2022-10-16T15:40:43;21.10;99.90
5461;DHT22;2753;49.196;8.286;2022-10-16T15:43:09;21.10;99.90
5461;DHT22;2753;49.196;8.286;2022-10-16T15:45:35;21.20;99.90
5461;DHT22;2753;49.196;8.286;2022-10-16T15:48:01;21.10;99.90
5461;DHT22;2753;49.196;8.286;2022-10-16T15:50:27;21.10;99.90
5461;DHT22;2753;49.196;8.286;2022-10-16T15:52:52;21.10;99.90
5461;DHT22;2753;49.196;8.286;2022-10-16T15:55:18;21.10;99.90
5461;DHT22;2753;49.196;8.286;2022-10-16T15:57:45;21.00;99.90
5461;DHT22;2753;49.196;8.286;2022-10-16T16:00:16;21.00;99.90
5461;DHT22;2753;49.196;8.286;2022-10-16T16:02:44;21.00;99.90
5461;DHT22;2753;49.196;8.286;2022-10-16T16:05:14;21.00;99.90
5461;DHT22;2753;49.196;8.286;2022-10-16T16:07:40;20.90;99.90
5461;DHT22;2753;49.196;8.286;2022-10-16T16:10:08;20.90;99.90
5461;DHT22;2753;49.196;8.286;2022-10-16T16:12:35;20.90;99.90
5461;DHT22;2753;49.196;8.286;2022-10-16T16:15:00;20.80;99.90
5461;DHT22;2753;49.196;8.286;2022-10-16T16:17:26;20.80;99.90
5461;DHT22;2753;49.196;8.286;2022-10-16T16:19:52;20.70;99.90
5461;DHT22;2753;49.196;8.286;2022-10-16T16:22:17;20.70;99.90
5461;DHT22;2753;49.196;8.286;2022-10-16T16:24:43;20.70;99.90
5461;DHT22;2753;49.196;8.286;2022-10-16T16:27:09;20.60;99.90
5461;DHT22;2753;49.196;8.286;2022-10-16T16:29:36;20.60;99.90
5461;DHT22;2753;49.196;8.286;2022-10-16T16:32:02;20.60;99.90
5461;DHT22;2753;49.196;8.286;2022-10-16T16:34:28;20.60;99.90
5461;DHT22;2753;49.196;8.286;2022-10-16T16:36:55;20.50;99.90
5461;DHT22;2753;49.196;8.286;2022-10-16T16:39:21;20.50;99.90
5461;DHT22;2753;49.196;8.286;2022-10-16T16:41:47;20.50;99.90
5461;DHT22;2753;49.196;8.286;2022-10-16T16:44:13;20.40;99.90
5461;DHT22;2753;49.196;8.286;2022-10-16T16:46:40;20.40;99.90
5461;DHT22;2753;49.196;8.286;2022-10-16T16:49:10;20.30;99.90
5461;DHT22;2753;49.196;8.286;2022-10-16T16:51:37;20.30;99.90
5461;DHT22;2753;49.196;8.286;2022-10-16T16:54:03;20.30;99.90
5461;DHT22;2753;49.196;8.286;2022-10-16T16:56:29;20.30;99.90
5461;DHT22;2753;49.196;8.286;2022-10-16T16:58:56;20.20;99.90
5461;DHT22;2753;49.196;8.286;2022-10-16T17:01:25;20.20;99.90
5461;DHT22;2753;49.196;8.286;2022-10-16T17:03:54;20.20;99.90
5461;DHT22;2753;49.196;8.286;2022-10-16T17:06:25;20.10;99.90
5461;DHT22;2753;49.196;8.286;2022-10-16T17:08:52;20.00;99.90
5461;DHT22;2753;49.196;8.286;2022-10-16T17:11:20;20.00;99.90
5461;DHT22;2753;49.196;8.286;2022-10-16T17:13:46;20.00;99.90
5461;DHT22;2753;49.196;8.286;2022-10-16T17:16:12;19.90;99.90
5461;DHT22;2753;49.196;8.286;2022-10-16T17:18:38;19.90;99.90
5461;DHT22;2753;49.196;8.286;2022-10-16T17:21:06;19.90;99.90
5461;DHT22;2753;49.196;8.286;2022-10-16T17:23:33;19.80;99.90
5461;DHT22;2753;49.196;8.286;2022-10-16T17:26:04;19.80;99.90
5461;DHT22;2753;49.196;8.286;2022-10-16T17:28:30;19.80;99.90
5461;DHT22;2753;49.196;8.286;2022-10-16T17:30:56;19.70;99.90
5461;DHT22;2753;49.196;8.286;2022-10-16T17:33:21;19.60;99.90
5461;DHT22;2753;49.196;8.286;2022-10-16T17:35:47;19.50;99.90
5461;DHT22;2753;49.196;8.286;2022-10-16T17:38:13;19.50;99.90
5461;DHT22;2753;49.196;8.286;2022-10-16T17:40:41;19.40;99.90
5461;DHT22;2753;49.196;8.286;2022-10-16T17:43:08;19.30;99.90
5461;DHT22;2753;49.196;8.286;2022-10-16T17:45:36;19.30;99.90
5461;DHT22;2753;49.196;8.286;2022-10-16T17:48:02;19.30;99.90
5461;DHT22;2753;49.196;8.286;2022-10-16T17:50:27;19.30;99.90
5461;DHT22;2753;49.196;8.286;2022-10-16T17:52:53;19.30;99.90
5461;DHT22;2753;49.196;8.286;2022-10-16T17:55:19;19.20;99.90
5461;DHT22;2753;49.196;8.286;2022-10-16T17:57:45;19.20;99.90
5461;DHT22;2753;49.196;8.286;2022-10-16T18:00:11;19.20;99.90
5461;DHT22;2753;49.196;8.286;2022-10-16T18:02:36;19.20;99.90
5461;DHT22;2753;49.196;8.286;2022-10-16T18:05:09;19.10;99.90
5461;DHT22;2753;49.196;8.286;2022-10-16T18:07:36;19.10;99.90
5461;DHT22;2753;49.196;8.286;2022-10-16T18:10:02;19.00;99.90
5461;DHT22;2753;49.196;8.286;2022-10-16T18:12:31;19.00;99.90
5461;DHT22;2753;49.196;8.286;2022-10-16T18:14:57;18.90;99.90
5461;DHT22;2753;49.196;8.286;2022-10-16T18:17:23;18.90;99.90
5461;DHT22;2753;49.196;8.286;2022-10-16T18:19:49;18.90;99.90
5461;DHT22;2753;49.196;8.286;2022-10-16T18:22:15;18.80;99.90
5461;DHT22;2753;49.196;8.286;2022-10-16T18:24:41;18.80;99.90
5461;DHT22;2753;49.196;8.286;2022-10-16T18:27:07;18.70;99.90
5461;DHT22;2753;49.196;8.286;2022-10-16T18:29:33;18.70;99.90
5461;DHT22;2753;49.196;8.286;2022-10-16T18:31:59;18.60;99.90
5461;DHT22;2753;49.196;8.286;2022-10-16T18:34:24;18.60;99.90